メインページ
METAR-TAF:

METAR-TAF

空港 :

Danbury Municipal Airport

Danbury, コネチカット州, アメリカ合衆国

緯度: 41-22-18N, 経度: 073-29-04W, 海抜: 139m

現時点の気象観測

当レポートは14分前の05:53(UTC)に作成
北東の風 7kt、最大16ktの突風を伴う
気温 8°C
湿度 76%
気圧 1012 hPa
視程: 16.1km
高度2500ftの曇り

METAR: KDXR 040553Z AUTO 04007G16KT 10SM OVC025 08/04 A2989 RMK AO2 SLP122 T00830044 10094 20083 51006

時間: 02:07 (06:07 UTC)


TAF: 見つかりません

4,000以上の空港の気象観測と天気予報(METAR報とTAF報)

利用可能な観測所は地図上に黄色い丸と赤い丸で示す。

丸の上にカーソルを重ねると観測所名を参照できる。

次にクリックすると気象観測と天気予報を参照できる。

マップの切り替え:黒色「×」印の緑ボタンをクリックして拡大、「-」印の緑ボタンをクリックして縮小、緑色の三角印をクリックして隣りの地図に切り替え


METAR-TAF: